Time;durP1;ratioP1;P1;durP2;ratioP2;P2;SDS_P1;SDS_P2;PMS_P1;PMS_P2;Temp;Humidity;BMP_temperature;BMP_pressure;BME280_temperature;BME280_humidity;BME280_pressure;Samples;Min_cycle;Max_cycle;Signal;HPM_P1;HPM_P2
2021/11/17 02:27:25;;;;;;;12.80;4.43;;;5.00;99.90;;;;;;5044835;28;20098;-67
2021/11/17 02:30:00;;;;;;;7.32;3.17;;;5.00;99.90;;;;;;5061947;28;20090;-68
2021/11/17 02:32:35;;;;;;;8.00;3.28;;;5.00;99.90;;;;;;5039086;28;20017;-68
2021/11/17 02:35:00;;;;;;;10.57;3.90;;;5.10;99.90;;;;;;5045788;28;20033;-67
2021/11/17 02:37:38;;;;;;;11.98;4.63;;;5.10;99.90;;;;;;5046885;28;20067;-67
2021/11/17 02:40:24;;;;;;;12.85;4.82;;;5.10;99.90;;;;;;5046206;28;20449;-66
2021/11/17 02:42:55;;;;;;;7.32;3.45;;;5.00;99.90;;;;;;5039498;28;20018;-66
2021/11/17 02:45:38;;;;;;;10.82;4.32;;;5.00;99.90;;;;;;5049238;28;20024;-66
2021/11/17 02:48:22;;;;;;;4.85;2.53;;;5.00;99.90;;;;;;5040630;28;20033;-67
2021/11/17 02:50:54;;;;;;;6.03;2.97;;;5.00;99.90;;;;;;5041179;28;20036;-67
2021/11/17 02:53:50;;;;;;;10.45;3.63;;;5.00;99.90;;;;;;5049668;28;20028;-67
2021/11/17 02:56:18;;;;;;;9.57;4.82;;;5.00;99.90;;;;;;5043836;28;20431;-66
2021/11/17 02:58:59;;;;;;;10.52;3.78;;;5.10;99.90;;;;;;5037826;28;20132;-66
2021/11/17 03:01:52;;;;;;;11.18;4.13;;;5.00;99.90;;;;;;5042429;28;20014;-66
2021/11/17 03:04:39;;;;;;;9.10;3.50;;;5.10;99.90;;;;;;5045194;28;20025;-66
2021/11/17 03:07:23;;;;;;;13.85;3.40;;;5.10;99.90;;;;;;5050343;28;20112;-66
2021/11/17 03:10:00;;;;;;;12.52;3.67;;;5.00;99.90;;;;;;5039860;28;20024;-66
2021/11/17 03:12:59;;;;;;;10.30;3.90;;;5.10;99.90;;;;;;5045232;28;20025;-66
2021/11/17 03:15:49;;;;;;;8.93;3.15;;;5.10;99.90;;;;;;5044545;28;20119;-66
2021/11/17 03:18:27;;;;;;;25.38;4.50;;;5.00;99.90;;;;;;5047681;28;20485;-66
2021/11/17 03:21:05;;;;;;;5.65;2.85;;;5.00;99.90;;;;;;5054372;28;20036;-66
2021/11/17 03:23:56;;;;;;;13.18;4.00;;;5.10;99.90;;;;;;5047449;28;20029;-67
2021/11/17 03:26:44;;;;;;;8.48;3.33;;;5.10;99.90;;;;;;5050575;28;20508;-67
2021/11/17 03:29:32;;;;;;;7.50;3.00;;;5.00;99.90;;;;;;5050888;28;20044;-67
2021/11/17 03:32:28;;;;;;;9.55;2.90;;;5.10;99.90;;;;;;5025235;28;20048;-68
2021/11/17 03:35:18;;;;;;;11.02;3.63;;;5.10;99.90;;;;;;5059487;28;20028;-68
2021/11/17 03:38:19;;;;;;;11.90;3.65;;;5.20;99.90;;;;;;5040554;28;20052;-68
2021/11/17 03:41:33;;;;;;;12.10;2.42;;;5.20;99.90;;;;;;5025448;28;20798;-68
2021/11/17 03:44:25;;;;;;;13.45;3.35;;;5.10;99.90;;;;;;5000888;28;20036;-68
2021/11/17 03:47:12;;;;;;;16.33;3.67;;;5.30;99.90;;;;;;5048009;28;20036;-68
2021/11/17 03:50:12;;;;;;;10.25;3.50;;;5.30;99.90;;;;;;5049446;28;20029;-68
2021/11/17 03:52:50;;;;;;;10.75;2.92;;;5.20;99.90;;;;;;5055280;28;20037;-68
2021/11/17 03:55:35;;;;;;;19.27;3.67;;;5.20;99.90;;;;;;5066788;28;20500;-68
2021/11/17 03:58:17;;;;;;;6.60;2.40;;;5.20;99.90;;;;;;5060389;28;20028;-68
2021/11/17 04:01:01;;;;;;;7.95;2.83;;;5.30;99.90;;;;;;5028959;28;20026;-68
2021/11/17 04:03:48;;;;;;;6.75;2.97;;;5.30;99.90;;;;;;5052266;28;20104;-67
2021/11/17 04:06:47;;;;;;;8.73;3.05;;;5.30;99.90;;;;;;5043745;28;20457;-67
2021/11/17 04:09:29;;;;;;;10.13;3.40;;;5.20;99.90;;;;;;5053089;28;20090;-67
2021/11/17 04:12:23;;;;;;;9.98;2.33;;;5.30;99.90;;;;;;5044360;28;20032;-68
2021/11/17 04:15:14;;;;;;;15.77;4.32;;;5.30;99.90;;;;;;5042129;28;20421;-68
2021/11/17 04:17:57;;;;;;;10.13;4.07;;;5.30;99.90;;;;;;5052429;28;20139;-68
2021/11/17 04:20:58;;;;;;;3.78;2.40;;;5.30;99.90;;;;;;5046374;28;20465;-68
2021/11/17 04:23:30;;;;;;;10.18;3.80;;;5.30;99.90;;;;;;5005608;28;20055;-68
2021/11/17 04:26:15;;;;;;;11.18;5.05;;;5.30;99.90;;;;;;5052478;28;20029;-68
2021/11/17 04:29:16;;;;;;;9.32;3.63;;;5.20;99.90;;;;;;5049794;28;20028;-68
2021/11/17 04:31:51;;;;;;;13.45;3.70;;;5.30;99.90;;;;;;5007496;28;20408;-68
2021/11/17 04:34:25;;;;;;;17.08;3.05;;;5.20;99.90;;;;;;5051827;28;20040;-68
2021/11/17 04:37:17;;;;;;;11.65;3.88;;;5.20;99.90;;;;;;5050864;28;20538;-68
2021/11/17 04:40:21;;;;;;;7.75;3.22;;;5.10;99.90;;;;;;5043719;28;20532;-67
2021/11/17 04:43:02;;;;;;;10.30;3.15;;;5.10;99.90;;;;;;5050045;28;20025;-66
2021/11/17 04:45:37;;;;;;;13.60;4.20;;;5.10;99.90;;;;;;5046892;28;20131;-66
2021/11/17 04:48:35;;;;;;;9.10;2.78;;;5.10;99.90;;;;;;5052546;28;20040;-67
2021/11/17 04:51:06;;;;;;;6.63;2.97;;;5.10;99.90;;;;;;5047861;28;20260;-67
2021/11/17 04:53:51;;;;;;;6.50;3.38;;;5.20;99.90;;;;;;5046337;28;20476;-67
2021/11/17 04:56:48;;;;;;;14.45;3.92;;;5.20;99.90;;;;;;5035215;28;20421;-67
2021/11/17 04:59:39;;;;;;;12.05;3.72;;;5.20;99.90;;;;;;5042840;28;20025;-67
2021/11/17 05:02:29;;;;;;;7.75;3.25;;;5.20;99.90;;;;;;5057396;28;20048;-67
2021/11/17 05:05:11;;;;;;;8.30;3.22;;;5.20;99.90;;;;;;5045676;28;20030;-67
2021/11/17 05:07:57;;;;;;;8.98;3.58;;;5.20;99.90;;;;;;5048096;28;20033;-68
2021/11/17 05:10:45;;;;;;;9.93;3.17;;;5.30;99.90;;;;;;5036823;28;20519;-67
2021/11/17 05:13:14;;;;;;;7.90;3.33;;;5.30;99.90;;;;;;5038673;28;20048;-67
2021/11/17 05:16:07;;;;;;;9.88;4.50;;;5.30;99.90;;;;;;5033253;28;20393;-67
2021/11/17 05:18:35;;;;;;;10.82;4.03;;;5.20;99.90;;;;;;5050298;28;20036;-67
2021/11/17 05:22:00;;;;;;;2.80;1.92;;;5.20;99.90;;;;;;5048439;28;20104;-67
2021/11/17 05:24:44;;;;;;;10.40;5.32;;;5.20;99.90;;;;;;5011892;28;20037;-67
2021/11/17 05:27:22;;;;;;;11.73;4.00;;;5.20;99.90;;;;;;5042281;28;20026;-67
2021/11/17 05:29:56;;;;;;;14.38;3.63;;;5.10;99.90;;;;;;5047153;28;20032;-67
2021/11/17 05:32:50;;;;;;;13.13;3.88;;;5.20;99.90;;;;;;5043455;28;20468;-67
2021/11/17 05:35:53;;;;;;;9.70;4.15;;;5.10;99.90;;;;;;5050286;28;20065;-67
2021/11/17 05:38:34;;;;;;;8.88;3.67;;;5.20;99.90;;;;;;5051310;28;20032;-67
2021/11/17 05:41:31;;;;;;;17.13;5.00;;;5.30;99.90;;;;;;5050153;28;20090;-67
2021/11/17 05:44:25;;;;;;;13.20;5.28;;;5.20;99.90;;;;;;5051321;28;20504;-67
2021/11/17 05:47:00;;;;;;;18.58;5.43;;;5.20;99.90;;;;;;5037511;28;20057;-67
2021/11/17 05:50:03;;;;;;;7.88;4.30;;;5.20;99.90;;;;;;5034175;28;20043;-67
2021/11/17 05:52:38;;;;;;;10.13;4.43;;;5.30;99.90;;;;;;5071052;28;20047;-67
2021/11/17 05:55:22;;;;;;;15.98;6.20;;;5.30;99.90;;;;;;5048676;28;20032;-67
2021/11/17 05:58:07;;;;;;;15.35;5.20;;;5.30;99.90;;;;;;5049067;28;20028;-67
2021/11/17 06:01:14;;;;;;;8.05;2.97;;;5.30;99.90;;;;;;5050889;28;20021;-67
2021/11/17 06:03:56;;;;;;;11.40;5.57;;;5.30;99.90;;;;;;4966883;28;20037;-67
2021/11/17 06:06:22;;;;;;;8.07;5.13;;;5.20;99.90;;;;;;5039121;28;20036;-67
2021/11/17 06:08:49;;;;;;;19.27;4.43;;;5.30;99.90;;;;;;5048751;28;20031;-67
2021/11/17 06:11:15;;;;;;;17.90;5.30;;;5.30;99.90;;;;;;5043088;28;20426;-67
2021/11/17 06:13:41;;;;;;;18.27;5.40;;;5.40;99.90;;;;;;5047810;28;20033;-67
2021/11/17 06:16:07;;;;;;;14.68;5.65;;;5.30;99.90;;;;;;5049256;28;20045;-67
2021/11/17 06:18:35;;;;;;;13.30;4.97;;;5.30;99.90;;;;;;5047880;28;20032;-67
2021/11/17 06:21:03;;;;;;;20.60;6.05;;;5.30;99.90;;;;;;5050263;28;20032;-67
2021/11/17 06:23:35;;;;;;;12.18;4.63;;;5.40;99.90;;;;;;5045534;28;20053;-67
2021/11/17 06:26:05;;;;;;;15.88;4.18;;;5.50;99.90;;;;;;5062777;28;20059;-67
2021/11/17 06:28:30;;;;;;;20.33;6.35;;;5.40;99.90;;;;;;5042289;28;20043;-67
2021/11/17 06:30:58;;;;;;;11.15;4.78;;;5.40;99.90;;;;;;5038855;28;20032;-67
2021/11/17 06:33:24;;;;;;;11.70;5.43;;;5.50;99.90;;;;;;5048543;28;20033;-67
2021/11/17 06:35:49;;;;;;;10.55;3.85;;;5.40;99.90;;;;;;5043566;28;20028;-67
2021/11/17 06:38:17;;;;;;;14.52;4.30;;;5.40;99.90;;;;;;5043224;28;20048;-67
2021/11/17 06:40:45;;;;;;;6.30;2.70;;;5.30;99.90;;;;;;5045382;28;20546;-67
2021/11/17 06:43:12;;;;;;;8.98;4.47;;;5.20;99.90;;;;;;5045701;28;20427;-67
2021/11/17 06:45:40;;;;;;;17.02;4.88;;;5.20;99.90;;;;;;5039764;28;20026;-67
2021/11/17 06:48:07;;;;;;;14.52;4.25;;;5.10;99.90;;;;;;5043749;28;20021;-67
2021/11/17 06:50:34;;;;;;;10.65;3.25;;;5.10;99.90;;;;;;5041861;28;20064;-67
2021/11/17 06:53:00;;;;;;;9.52;3.78;;;5.10;99.90;;;;;;5043734;28;20039;-67
2021/11/17 06:55:26;;;;;;;16.83;4.82;;;5.00;99.90;;;;;;5043217;28;20029;-68
2021/11/17 06:57:52;;;;;;;10.95;3.88;;;5.00;99.90;;;;;;5046904;28;20059;-67
2021/11/17 07:00:24;;;;;;;16.10;6.03;;;5.10;99.90;;;;;;5040407;28;20704;-67
2021/11/17 07:02:51;;;;;;;15.45;5.22;;;5.10;99.90;;;;;;5042712;28;20017;-67
2021/11/17 07:05:18;;;;;;;13.70;5.00;;;5.20;99.90;;;;;;5060499;28;20603;-67
2021/11/17 07:07:44;;;;;;;14.55;4.50;;;5.30;99.90;;;;;;5040261;28;20025;-67
2021/11/17 07:10:12;;;;;;;16.77;4.80;;;5.40;99.90;;;;;;5043775;28;20091;-67
2021/11/17 07:12:40;;;;;;;11.65;4.25;;;5.50;99.90;;;;;;5043447;28;20029;-67
2021/11/17 07:15:07;;;;;;;10.68;4.70;;;5.50;99.90;;;;;;5048310;28;20029;-68
2021/11/17 07:17:33;;;;;;;9.73;4.65;;;5.60;99.90;;;;;;5043580;28;20120;-67
2021/11/17 07:20:00;;;;;;;11.25;5.28;;;5.60;99.90;;;;;;5040338;28;20128;-67
2021/11/17 07:22:26;;;;;;;10.40;4.78;;;5.60;99.90;;;;;;5041939;28;20056;-68
2021/11/17 07:24:51;;;;;;;14.07;5.40;;;5.60;99.90;;;;;;5038476;28;20027;-68
2021/11/17 07:27:23;;;;;;;9.82;4.28;;;5.70;99.90;;;;;;5038994;28;20025;-68
2021/11/17 07:29:53;;;;;;;14.70;3.55;;;5.70;99.90;;;;;;5046995;28;20021;-68
2021/11/17 07:32:20;;;;;;;12.93;4.88;;;5.80;99.90;;;;;;5040084;28;20041;-68
2021/11/17 07:34:45;;;;;;;10.15;4.40;;;5.80;99.90;;;;;;5041308;28;20377;-68
2021/11/17 07:37:11;;;;;;;11.00;4.43;;;5.90;99.90;;;;;;5037214;28;20037;-68
2021/11/17 07:39:37;;;;;;;11.50;4.03;;;5.90;99.90;;;;;;5048939;28;20035;-68
2021/11/17 07:42:03;;;;;;;14.48;4.80;;;6.00;99.90;;;;;;5036164;28;20029;-68
2021/11/17 07:44:29;;;;;;;14.30;4.72;;;6.00;99.90;;;;;;5039276;28;20115;-68
2021/11/17 07:46:57;;;;;;;13.55;5.03;;;6.00;99.90;;;;;;5041502;28;20536;-69
2021/11/17 07:49:24;;;;;;;10.18;3.47;;;6.10;99.90;;;;;;5042498;28;21111;-68
2021/11/17 07:51:50;;;;;;;12.40;4.65;;;6.10;99.90;;;;;;5033091;28;20385;-68
2021/11/17 07:54:18;;;;;;;4.90;2.70;;;6.20;99.90;;;;;;5035864;28;20025;-68
2021/11/17 07:56:44;;;;;;;16.23;4.93;;;6.20;99.90;;;;;;5033752;28;20029;-68
2021/11/17 07:59:14;;;;;;;21.73;4.43;;;6.30;99.90;;;;;;5030605;28;20021;-68
2021/11/17 08:01:42;;;;;;;10.13;3.95;;;6.30;99.90;;;;;;5039713;28;20469;-68
2021/11/17 08:04:08;;;;;;;7.22;2.22;;;7.10;99.90;;;;;;5044863;28;20017;-68
2021/11/17 08:06:34;;;;;;;29.15;4.68;;;6.40;99.90;;;;;;5049114;28;20099;-68
2021/11/17 08:09:01;;;;;;;5.63;2.47;;;6.50;99.90;;;;;;5050952;28;20033;-68
2021/11/17 08:11:27;;;;;;;9.77;3.47;;;6.50;99.90;;;;;;5050531;28;20021;-68
2021/11/17 08:13:52;;;;;;;13.80;6.40;;;6.60;99.90;;;;;;5045710;28;20068;-68
2021/11/17 08:16:18;;;;;;;12.38;3.60;;;6.70;99.90;;;;;;5047707;28;20144;-68
2021/11/17 08:18:44;;;;;;;11.13;3.40;;;6.80;99.90;;;;;;5037802;28;20033;-68
2021/11/17 08:21:12;;;;;;;11.50;4.72;;;6.90;99.90;;;;;;5049242;28;20022;-68
2021/11/17 08:23:38;;;;;;;17.77;5.22;;;7.00;99.90;;;;;;5035365;28;20034;-68
2021/11/17 08:26:05;;;;;;;14.25;4.50;;;7.20;99.90;;;;;;5034145;28;20350;-68
2021/11/17 08:28:31;;;;;;;12.07;3.90;;;7.30;99.90;;;;;;5042444;28;20043;-68
2021/11/17 08:30:57;;;;;;;14.10;4.55;;;7.50;99.90;;;;;;5044755;28;20628;-68
2021/11/17 08:33:22;;;;;;;14.45;4.10;;;7.50;99.90;;;;;;5041022;28;20106;-68
2021/11/17 08:35:48;;;;;;;12.77;4.38;;;7.50;99.90;;;;;;5049743;28;20024;-68
2021/11/17 08:38:20;;;;;;;14.70;4.00;;;7.50;99.90;;;;;;5056855;28;20135;-68
2021/11/17 08:40:49;;;;;;;11.40;4.60;;;7.40;99.90;;;;;;5034357;28;20018;-68
2021/11/17 08:43:16;;;;;;;17.60;4.53;;;7.40;99.90;;;;;;5059556;28;20018;-68
2021/11/17 08:45:42;;;;;;;10.20;3.72;;;7.50;99.90;;;;;;5039413;28;20496;-68
2021/11/17 08:48:08;;;;;;;17.80;5.60;;;7.50;99.90;;;;;;5038136;28;20094;-68
2021/11/17 08:50:35;;;;;;;14.00;4.03;;;7.50;99.90;;;;;;5036241;28;20075;-68
2021/11/17 08:53:03;;;;;;;14.57;5.20;;;7.50;99.90;;;;;;5038145;28;20033;-68
2021/11/17 08:55:31;;;;;;;16.23;5.72;;;7.50;99.90;;;;;;5034563;28;20497;-68
2021/11/17 08:57:58;;;;;;;17.23;5.45;;;7.60;99.90;;;;;;5034392;28;20018;-68
2021/11/17 09:00:25;;;;;;;13.52;4.97;;;7.50;99.90;;;;;;5033374;28;20029;-68
2021/11/17 09:02:53;;;;;;;19.10;5.38;;;7.40;99.90;;;;;;5038184;28;20365;-68
2021/11/17 09:05:23;;;;;;;18.02;6.22;;;7.40;99.90;;;;;;5042236;28;20117;-68
2021/11/17 09:07:49;;;;;;;8.00;4.25;;;7.40;99.90;;;;;;5039036;28;20589;-68
2021/11/17 09:10:21;;;;;;;6.20;2.30;;;7.40;99.90;;;;;;5041707;28;20033;-69
2021/11/17 09:12:47;;;;;;;13.45;5.03;;;7.50;99.90;;;;;;5041450;28;20033;-68
2021/11/17 09:15:14;;;;;;;11.23;4.65;;;7.60;99.90;;;;;;5046965;28;20037;-69
2021/11/17 09:17:41;;;;;;;21.35;5.65;;;7.70;99.90;;;;;;5039038;28;20045;-69
2021/11/17 09:20:08;;;;;;;11.10;5.15;;;7.80;99.90;;;;;;5042043;28;20021;-68
2021/11/17 09:22:35;;;;;;;16.75;4.65;;;7.80;99.90;;;;;;5037910;28;20030;-68
2021/11/17 09:25:01;;;;;;;14.32;3.97;;;7.90;99.90;;;;;;5059955;28;20043;-68
2021/11/17 09:27:27;;;;;;;8.52;3.65;;;7.90;99.90;;;;;;5049978;28;20033;-68
2021/11/17 09:29:54;;;;;;;12.85;4.60;;;7.90;99.90;;;;;;5046641;28;20029;-68
2021/11/17 09:32:19;;;;;;;13.25;4.15;;;7.80;99.90;;;;;;5051728;28;20025;-69
2021/11/17 09:34:45;;;;;;;15.25;5.00;;;7.90;99.90;;;;;;5049179;28;20163;-69
2021/11/17 09:37:11;;;;;;;17.08;5.03;;;7.90;99.90;;;;;;5040484;28;20286;-68
2021/11/17 09:39:40;;;;;;;11.00;3.13;;;7.90;99.90;;;;;;5043196;28;20028;-69
2021/11/17 09:42:07;;;;;;;14.23;4.05;;;7.90;99.90;;;;;;5041773;28;20039;-69
2021/11/17 09:44:40;;;;;;;13.32;4.65;;;7.90;99.90;;;;;;5040342;28;20053;-69
2021/11/17 09:47:10;;;;;;;12.02;5.28;;;8.00;99.90;;;;;;5035691;28;20025;-69
2021/11/17 09:49:47;;;;;;;20.27;5.40;;;7.90;99.90;;;;;;5037034;28;20063;-69
2021/11/17 09:52:22;;;;;;;14.50;5.07;;;8.00;99.90;;;;;;5066305;28;20017;-69
2021/11/17 09:54:57;;;;;;;13.93;4.53;;;7.90;99.90;;;;;;5046201;28;20029;-69
2021/11/17 09:57:27;;;;;;;14.68;4.70;;;8.00;99.90;;;;;;5049298;28;20033;-69
2021/11/17 10:00:05;;;;;;;14.95;4.07;;;8.20;99.90;;;;;;5046416;28;20020;-68
2021/11/17 10:02:58;;;;;;;15.50;4.55;;;8.20;99.90;;;;;;5048824;28;20567;-69
2021/11/17 10:09:22;;;;;;;11.07;4.82;;;8.30;99.90;;;;;;5044920;28;20021;-69
2021/11/17 10:14:06;;;;;;;13.18;4.15;;;8.50;99.90;;;;;;5032572;28;20120;-69
2021/11/17 10:16:32;;;;;;;10.00;3.83;;;8.50;99.90;;;;;;5047640;28;20040;-69
2021/11/17 10:19:27;;;;;;;17.23;4.53;;;8.50;99.90;;;;;;5048142;28;20407;-69
2021/11/17 10:22:12;;;;;;;15.27;4.50;;;8.40;99.90;;;;;;5034808;28;20056;-69
2021/11/17 10:24:53;;;;;;;13.30;3.90;;;8.40;99.90;;;;;;5045746;28;20071;-69
2021/11/17 10:27:30;;;;;;;11.23;4.13;;;8.30;99.90;;;;;;5049062;28;20037;-69
2021/11/17 10:30:15;;;;;;;12.35;4.50;;;8.30;99.90;;;;;;5043327;28;20659;-69
2021/11/17 10:33:09;;;;;;;11.82;4.00;;;8.30;99.90;;;;;;5048940;28;20033;-69
2021/11/17 10:35:55;;;;;;;10.73;4.95;;;8.10;99.90;;;;;;5040104;28;20071;-69
2021/11/17 10:38:29;;;;;;;12.43;4.38;;;8.20;99.90;;;;;;5041939;28;20396;-69
2021/11/17 10:40:59;;;;;;;13.80;4.43;;;8.20;99.90;;;;;;5044893;28;20678;-69
2021/11/17 10:43:31;;;;;;;15.48;5.05;;;8.30;99.90;;;;;;5052474;28;20052;-69
2021/11/17 10:46:04;;;;;;;11.02;3.25;;;8.20;99.90;;;;;;5050229;28;20028;-69
2021/11/17 10:48:34;;;;;;;12.90;4.47;;;8.30;99.90;;;;;;5041658;28;20024;-69
2021/11/17 10:51:15;;;;;;;12.10;4.53;;;8.30;99.90;;;;;;5051845;28;20028;-69
2021/11/17 10:53:45;;;;;;;11.07;4.35;;;8.50;99.90;;;;;;5060193;28;20276;-69
2021/11/17 10:56:15;;;;;;;10.68;3.95;;;8.50;99.90;;;;;;5049830;28;20044;-68
2021/11/17 10:58:43;;;;;;;12.90;5.05;;;8.60;99.90;;;;;;5051469;28;20125;-68
2021/11/17 11:01:19;;;;;;;12.68;4.65;;;8.50;99.90;;;;;;5048968;28;20013;-69
2021/11/17 11:03:57;;;;;;;12.80;4.10;;;8.50;99.90;;;;;;5041656;28;20424;-69
2021/11/17 11:06:37;;;;;;;15.57;4.10;;;8.50;99.90;;;;;;5048239;28;20113;-69
2021/11/17 11:09:06;;;;;;;;;;;8.60;99.90;;;;;;5049454;28;20655;-69
2021/11/17 11:11:36;;;;;;;11.60;3.88;;;8.60;99.90;;;;;;5048172;28;19913;-69
2021/11/17 11:14:08;;;;;;;;;;;8.60;99.90;;;;;;5063121;28;20037;-69
2021/11/17 11:16:43;;;;;;;10.10;3.78;;;8.70;99.90;;;;;;5049108;28;19946;-69
2021/11/17 11:19:08;;;;;;;13.82;3.90;;;8.70;99.90;;;;;;5044511;28;20029;-69
2021/11/17 11:21:43;;;;;;;14.90;4.53;;;8.80;99.90;;;;;;5046329;28;20039;-69
2021/11/17 11:24:47;;;;;;;14.43;4.90;;;8.90;99.90;;;;;;5049296;28;20029;-69
2021/11/17 11:27:17;;;;;;;10.40;4.03;;;8.90;99.90;;;;;;5043005;28;20127;-69
2021/11/17 11:29:47;;;;;;;;;;;8.90;99.90;;;;;;5060672;28;20634;-70
2021/11/17 11:32:16;;;;;;;9.13;3.45;;;8.70;99.90;;;;;;5040617;28;19944;-69
2021/11/17 11:35:08;;;;;;;14.95;4.93;;;8.70;99.90;;;;;;5055728;28;20038;-69
2021/11/17 11:37:33;;;;;;;14.52;5.03;;;8.70;99.90;;;;;;5044208;28;20102;-69
2021/11/17 11:40:05;;;;;;;10.93;3.80;;;8.60;99.90;;;;;;5042505;28;20380;-69
2021/11/17 11:42:55;;;;;;;13.00;3.90;;;8.60;99.90;;;;;;5040702;28;20028;-69
2021/11/17 11:45:26;;;;;;;10.18;3.63;;;8.60;99.90;;;;;;5043966;28;20108;-68
2021/11/17 11:48:04;;;;;;;15.25;5.07;;;8.50;99.90;;;;;;5045224;28;20046;-68
2021/11/17 11:50:30;;;;;;;16.75;3.78;;;8.50;99.90;;;;;;5040688;28;20547;-68
2021/11/17 11:53:01;;;;;;;9.30;4.10;;;8.50;99.90;;;;;;5039896;28;20055;-68
2021/11/17 11:55:50;;;;;;;11.30;3.78;;;8.50;99.90;;;;;;5057955;28;20067;-68
2021/11/17 11:58:23;;;;;;;14.02;3.65;;;8.50;99.90;;;;;;5048547;28;20025;-68
2021/11/17 12:00:59;;;;;;;13.88;3.53;;;8.60;99.90;;;;;;5040988;28;20017;-68
2021/11/17 12:03:28;;;;;;;15.00;5.00;;;8.60;99.90;;;;;;5042040;28;20083;-68
2021/11/17 12:06:07;;;;;;;8.05;3.53;;;8.70;99.90;;;;;;5046575;28;20050;-68
2021/11/17 12:08:42;;;;;;;16.48;4.57;;;8.80;99.90;;;;;;5044352;28;20098;-68
2021/11/17 12:11:15;;;;;;;13.00;4.05;;;8.80;99.90;;;;;;5044728;28;20025;-68
2021/11/17 12:13:58;;;;;;;7.90;2.72;;;8.70;99.90;;;;;;5048158;28;20111;-68
2021/11/17 12:16:51;;;;;;;16.80;3.85;;;8.60;99.90;;;;;;5044427;28;20052;-68
2021/11/17 12:19:30;;;;;;;18.00;5.70;;;8.50;99.90;;;;;;5039769;28;20064;-68
2021/11/17 12:22:06;;;;;;;13.43;4.85;;;8.40;99.90;;;;;;5041662;28;20025;-67
2021/11/17 12:24:36;;;;;;;21.25;4.75;;;8.30;99.90;;;;;;5043559;28;20065;-68
2021/11/17 12:27:11;;;;;;;14.60;5.72;;;8.30;99.90;;;;;;5049489;28;20021;-68
2021/11/17 12:29:42;;;;;;;18.25;5.55;;;8.20;99.90;;;;;;5052129;28;20029;-68
2021/11/17 12:32:14;;;;;;;12.18;3.50;;;8.10;99.90;;;;;;5048027;28;20431;-68
2021/11/17 12:34:51;;;;;;;19.25;5.78;;;8.10;99.90;;;;;;5044559;28;20818;-68
2021/11/17 12:37:27;;;;;;;16.45;4.63;;;8.00;99.90;;;;;;5047149;28;20495;-68
2021/11/17 12:39:58;;;;;;;11.75;4.25;;;8.10;99.90;;;;;;5059220;28;20028;-68
2021/11/17 12:42:26;;;;;;;14.13;4.47;;;8.00;99.90;;;;;;5046512;28;20055;-68
2021/11/17 12:44:52;;;;;;;22.00;5.10;;;7.90;99.90;;;;;;5044968;28;20056;-68
2021/11/17 12:47:23;;;;;;;14.65;4.80;;;7.90;99.90;;;;;;5044287;28;20464;-68
2021/11/17 12:49:48;;;;;;;;;;;7.90;99.90;;;;;;5046128;28;20473;-68
2021/11/17 12:52:38;;;;;;;8.00;3.72;;;8.00;99.90;;;;;;5047657;28;19935;-68
2021/11/17 12:55:10;;;;;;;12.57;4.03;;;7.90;99.90;;;;;;5046204;28;20056;-68
2021/11/17 12:57:43;;;;;;;21.30;6.38;;;7.90;99.90;;;;;;5045149;28;20029;-68
2021/11/17 13:00:20;;;;;;;20.05;5.65;;;8.00;99.90;;;;;;5048925;28;20044;-68
2021/11/17 13:02:58;;;;;;;21.33;5.47;;;8.00;99.90;;;;;;5046681;28;20017;-68
2021/11/17 13:05:26;;;;;;;12.55;4.28;;;8.00;99.90;;;;;;5053265;28;20043;-68
2021/11/17 13:08:15;;;;;;;14.23;6.00;;;7.90;99.90;;;;;;5049498;28;20171;-68
2021/11/17 13:10:49;;;;;;;14.90;5.63;;;7.90;99.90;;;;;;5049185;28;20082;-68
2021/11/17 13:13:24;;;;;;;10.43;3.40;;;8.00;99.90;;;;;;5042584;28;20101;-68
2021/11/17 13:16:00;;;;;;;28.80;6.68;;;8.00;99.90;;;;;;5044261;28;20083;-67
2021/11/17 13:18:28;;;;;;;17.70;5.80;;;7.90;99.90;;;;;;5037078;28;20027;-68
2021/11/17 13:21:09;;;;;;;12.93;4.63;;;8.00;99.90;;;;;;5045277;28;20029;-67
2021/11/17 13:23:57;;;;;;;21.10;5.32;;;8.10;99.90;;;;;;5063255;28;20048;-67
2021/11/17 13:26:43;;;;;;;15.25;4.93;;;8.10;99.90;;;;;;5040230;28;20873;-67
2021/11/17 13:29:28;;;;;;;18.58;5.50;;;8.20;99.90;;;;;;5043562;28;20028;-67
2021/11/17 13:32:03;;;;;;;15.20;5.35;;;8.30;99.90;;;;;;5047128;28;20029;-67
2021/11/17 13:34:42;;;;;;;16.65;5.78;;;8.30;99.90;;;;;;5051003;28;20052;-67
2021/11/17 13:37:39;;;;;;;14.70;4.85;;;8.30;99.90;;;;;;5043722;28;20154;-67
2021/11/17 13:40:07;;;;;;;13.50;4.50;;;8.20;99.90;;;;;;5047339;28;20099;-67
2021/11/17 13:42:34;;;;;;;15.27;4.50;;;8.30;99.90;;;;;;5047278;28;20112;-67
2021/11/17 13:45:01;;;;;;;11.77;4.43;;;8.30;99.90;;;;;;5044526;28;20055;-67
2021/11/17 13:47:30;;;;;;;17.58;5.03;;;8.30;99.90;;;;;;5037626;28;20072;-67
2021/11/17 13:49:58;;;;;;;19.00;5.20;;;8.30;99.90;;;;;;5036146;28;20038;-67
2021/11/17 13:52:27;;;;;;;20.40;5.45;;;8.30;99.90;;;;;;5045495;28;20021;-67
2021/11/17 13:54:54;;;;;;;21.58;5.35;;;8.40;99.90;;;;;;5062693;28;20606;-67
2021/11/17 13:57:20;;;;;;;14.98;4.63;;;8.40;99.90;;;;;;5043864;28;20039;-67
2021/11/17 13:59:46;;;;;;;16.48;5.07;;;8.40;99.90;;;;;;5047445;28;20519;-67
2021/11/17 14:02:12;;;;;;;12.35;4.20;;;8.50;99.90;;;;;;5050699;28;20025;-67
2021/11/17 14:04:37;;;;;;;21.60;6.32;;;8.40;99.90;;;;;;5044617;28;20808;-67
2021/11/17 14:07:05;;;;;;;15.80;4.88;;;8.50;99.90;;;;;;5044144;28;20071;-67
2021/11/17 14:09:30;;;;;;;15.90;5.05;;;8.40;99.90;;;;;;5045930;28;20086;-67
2021/11/17 14:11:58;;;;;;;19.58;5.72;;;8.50;99.90;;;;;;5043759;28;20037;-68
2021/11/17 14:14:24;;;;;;;13.80;4.28;;;8.60;99.90;;;;;;5049069;28;20496;-67
2021/11/17 14:16:50;;;;;;;21.65;6.43;;;8.60;99.90;;;;;;5044196;28;20072;-67
2021/11/17 14:19:16;;;;;;;15.20;4.57;;;8.60;99.90;;;;;;5040999;28;20034;-67
2021/11/17 14:21:42;;;;;;;15.35;5.00;;;8.70;99.90;;;;;;5042656;28;20192;-67
2021/11/17 14:24:10;;;;;;;9.73;4.38;;;8.70;99.90;;;;;;5042256;28;20539;-67
2021/11/17 14:26:40;;;;;;;15.73;5.28;;;8.70;99.90;;;;;;5045315;28;20063;-67
2021/11/17 14:29:40;;;;;;;14.98;4.88;;;8.70;99.90;;;;;;5039452;28;20029;-67
2021/11/17 14:32:10;;;;;;;21.73;4.85;;;8.70;99.90;;;;;;5042510;28;20528;-67
2021/11/17 14:34:36;;;;;;;;;;;8.70;99.90;;;;;;5062841;28;20017;-67
2021/11/17 14:37:05;;;;;;;18.90;5.00;;;8.70;99.90;;;;;;5046591;28;19927;-67
2021/11/17 14:39:35;;;;;;;14.68;5.75;;;8.70;99.90;;;;;;5046495;28;22010;-68
2021/11/17 14:42:01;;;;;;;13.80;4.85;;;8.70;99.90;;;;;;5044612;28;20062;-68
2021/11/17 14:44:28;;;;;;;14.13;3.90;;;8.70;99.90;;;;;;5044847;28;20021;-67
2021/11/17 14:46:53;;;;;;;9.57;4.25;;;8.60;99.90;;;;;;5048460;28;20123;-67
2021/11/17 14:49:19;;;;;;;12.93;4.90;;;8.60;99.90;;;;;;5050436;28;20132;-68
2021/11/17 14:51:45;;;;;;;12.07;4.63;;;8.50;99.90;;;;;;5040732;28;20056;-68
2021/11/17 14:54:11;;;;;;;19.50;4.95;;;8.60;99.90;;;;;;5047352;28;20033;-68
2021/11/17 14:56:41;;;;;;;10.30;3.42;;;8.50;99.90;;;;;;5048534;28;20043;-68
2021/11/17 14:59:07;;;;;;;16.23;4.65;;;8.50;99.90;;;;;;5045857;28;20527;-68
2021/11/17 15:01:36;;;;;;;14.13;5.60;;;8.50;99.90;;;;;;5041613;28;20123;-68
2021/11/17 15:04:03;;;;;;;11.95;4.75;;;8.50;99.90;;;;;;5047202;28;20250;-68
2021/11/17 15:06:30;;;;;;;19.02;6.13;;;8.50;99.90;;;;;;5044284;28;20393;-68
2021/11/17 15:08:56;;;;;;;15.82;5.68;;;8.50;99.90;;;;;;5044097;28;20191;-68
2021/11/17 15:11:23;;;;;;;15.65;5.70;;;8.50;99.90;;;;;;5037312;28;20678;-68
2021/11/17 15:13:50;;;;;;;12.70;5.22;;;8.50;99.90;;;;;;5038752;28;20049;-68
2021/11/17 15:16:16;;;;;;;24.08;6.63;;;8.40;99.90;;;;;;5045478;28;20127;-68
2021/11/17 15:18:44;;;;;;;17.02;5.88;;;8.40;99.90;;;;;;5051165;28;20065;-68
2021/11/17 15:21:11;;;;;;;23.67;5.15;;;8.40;99.90;;;;;;5046030;28;20070;-68
2021/11/17 15:23:38;;;;;;;20.70;6.18;;;8.40;99.90;;;;;;5042202;28;20102;-68
2021/11/17 15:26:04;;;;;;;23.83;7.85;;;8.40;99.90;;;;;;5033941;28;20097;-68
2021/11/17 15:28:37;;;;;;;17.77;5.93;;;8.40;99.90;;;;;;5044736;28;20029;-68
2021/11/17 15:31:09;;;;;;;25.52;8.10;;;8.40;99.90;;;;;;5053428;28;20420;-68
2021/11/17 15:33:36;;;;;;;26.65;6.15;;;8.40;99.90;;;;;;5043567;28;20041;-68
2021/11/17 15:36:04;;;;;;;28.05;7.18;;;8.40;99.90;;;;;;5037758;28;20245;-68
2021/11/17 15:38:29;;;;;;;19.10;7.45;;;8.40;99.90;;;;;;5045116;28;20053;-68
2021/11/17 15:40:59;;;;;;;26.02;6.18;;;8.40;99.90;;;;;;5044896;28;20067;-68
2021/11/17 15:43:26;;;;;;;21.13;5.05;;;8.40;99.90;;;;;;5041964;28;20116;-68
2021/11/17 15:45:53;;;;;;;30.83;8.40;;;8.40;99.90;;;;;;5045090;28;20503;-68
2021/11/17 15:48:20;;;;;;;25.63;7.03;;;8.40;99.90;;;;;;5055360;28;20032;-68
2021/11/17 15:50:51;;;;;;;29.15;8.90;;;8.40;99.90;;;;;;5045296;28;20492;-68
2021/11/17 15:53:16;;;;;;;;;;;8.40;99.90;;;;;;5037108;28;20484;-68
2021/11/17 15:55:42;;;;;;;36.08;8.15;;;8.30;99.90;;;;;;5058343;28;19917;-68
2021/11/17 15:58:08;;;;;;;19.63;6.53;;;8.30;99.90;;;;;;5040328;28;20021;-68
2021/11/17 16:00:34;;;;;;;39.78;8.70;;;8.30;99.90;;;;;;5041768;28;20079;-68